<?xml version="1.0" encoding="utf-8"?>
<gpx xmlns:xsi="http://www.w3.org/2001/XMLSchema-instance" xmlns:xsd="http://www.w3.org/2001/XMLSchema" version="1.1" creator="Shapelink.com" xmlns="http://www.topografix.com/GPX/1/1" xmlns:gpxtpx="http://www.garmin.com/xmlschemas/TrackPointExtension/v1">
  <metadata>
    <name>Kører 3.73 km, 2010-05-03</name>
    <desc></desc>
    <author><name>Christian Sverrhag</name></author> 
    <time>2010-05-03T18:01:47Z</time>
  </metadata>
  <trk>
    <name>Kører 3.73 km, 2010-05-03</name>
    <trkseg>
      <trkpt lat="55.6961555" lon="13.195342">
        <ele>25.1317</ele>
        <time>2010-05-03T18:01:47Z</time>
      </trkpt>
      <trkpt lat="55.6961629" lon="13.1953349">
        <ele>25.6123</ele>
        <time>2010-05-03T18:01:48Z</time>
      </trkpt>
      <trkpt lat="55.6962041" lon="13.1950856">
        <ele>27.0543</ele>
        <time>2010-05-03T18:01:52Z</time>
      </trkpt>
      <trkpt lat="55.696214" lon="13.1950094">
        <ele>27.0543</ele>
        <time>2010-05-03T18:01:53Z</time>
      </trkpt>
      <trkpt lat="55.6962593" lon="13.1947106">
        <ele>28.4962</ele>
        <time>2010-05-03T18:01:57Z</time>
      </trkpt>
      <trkpt lat="55.696271" lon="13.1945652">
        <ele>28.4962</ele>
        <time>2010-05-03T18:01:59Z</time>
      </trkpt>
      <trkpt lat="55.696274" lon="13.1944125">
        <ele>28.4962</ele>
        <time>2010-05-03T18:02:01Z</time>
      </trkpt>
      <trkpt lat="55.6962745" lon="13.1942668">
        <ele>27.5349</ele>
        <time>2010-05-03T18:02:03Z</time>
      </trkpt>
      <trkpt lat="55.6962844" lon="13.1941442">
        <ele>27.5349</ele>
        <time>2010-05-03T18:02:05Z</time>
      </trkpt>
      <trkpt lat="55.6963138" lon="13.1938308">
        <ele>27.5349</ele>
        <time>2010-05-03T18:02:10Z</time>
      </trkpt>
      <trkpt lat="55.6963196" lon="13.1935785">
        <ele>27.0543</ele>
        <time>2010-05-03T18:02:14Z</time>
      </trkpt>
      <trkpt lat="55.696319" lon="13.1933214">
        <ele>27.0543</ele>
        <time>2010-05-03T18:02:18Z</time>
      </trkpt>
      <trkpt lat="55.6962876" lon="13.1930542">
        <ele>28.4962</ele>
        <time>2010-05-03T18:02:22Z</time>
      </trkpt>
      <trkpt lat="55.6962864" lon="13.192804">
        <ele>29.4575</ele>
        <time>2010-05-03T18:02:26Z</time>
      </trkpt>
      <trkpt lat="55.6963103" lon="13.1927656">
        <ele>29.9381</ele>
        <time>2010-05-03T18:02:27Z</time>
      </trkpt>
      <trkpt lat="55.6964143" lon="13.1924738">
        <ele>30.4188</ele>
        <time>2010-05-03T18:02:32Z</time>
      </trkpt>
      <trkpt lat="55.6964083" lon="13.192199">
        <ele>31.3801</ele>
        <time>2010-05-03T18:02:36Z</time>
      </trkpt>
      <trkpt lat="55.6963121" lon="13.1919327">
        <ele>31.8607</ele>
        <time>2010-05-03T18:02:41Z</time>
      </trkpt>
      <trkpt lat="55.6962407" lon="13.1916846">
        <ele>32.3416</ele>
        <time>2010-05-03T18:02:46Z</time>
      </trkpt>
      <trkpt lat="55.6961713" lon="13.1914177">
        <ele>32.3416</ele>
        <time>2010-05-03T18:02:51Z</time>
      </trkpt>
      <trkpt lat="55.6961548" lon="13.191194">
        <ele>34.2642</ele>
        <time>2010-05-03T18:02:55Z</time>
      </trkpt>
      <trkpt lat="55.6961528" lon="13.1908365">
        <ele>31.3801</ele>
        <time>2010-05-03T18:03:00Z</time>
      </trkpt>
      <trkpt lat="55.6961327" lon="13.1904759">
        <ele>28.9769</ele>
        <time>2010-05-03T18:03:05Z</time>
      </trkpt>
      <trkpt lat="55.6961523" lon="13.1902538">
        <ele>27.5349</ele>
        <time>2010-05-03T18:03:09Z</time>
      </trkpt>
      <trkpt lat="55.6961631" lon="13.1902028">
        <ele>28.0155</ele>
        <time>2010-05-03T18:03:10Z</time>
      </trkpt>
      <trkpt lat="55.6962437" lon="13.1899364">
        <ele>31.8607</ele>
        <time>2010-05-03T18:03:15Z</time>
      </trkpt>
      <trkpt lat="55.6962036" lon="13.189547">
        <ele>32.8223</ele>
        <time>2010-05-03T18:03:21Z</time>
      </trkpt>
      <trkpt lat="55.6961797" lon="13.1894776">
        <ele>32.3416</ele>
        <time>2010-05-03T18:03:22Z</time>
      </trkpt>
      <trkpt lat="55.6962449" lon="13.189238">
        <ele>34.7449</ele>
        <time>2010-05-03T18:03:27Z</time>
      </trkpt>
      <trkpt lat="55.6962977" lon="13.1888925">
        <ele>33.7834</ele>
        <time>2010-05-03T18:03:32Z</time>
      </trkpt>
      <trkpt lat="55.6963673" lon="13.1886868">
        <ele>32.8223</ele>
        <time>2010-05-03T18:03:36Z</time>
      </trkpt>
      <trkpt lat="55.6964127" lon="13.1883904">
        <ele>32.3416</ele>
        <time>2010-05-03T18:03:41Z</time>
      </trkpt>
      <trkpt lat="55.6964495" lon="13.188217">
        <ele>32.8223</ele>
        <time>2010-05-03T18:03:44Z</time>
      </trkpt>
      <trkpt lat="55.6965062" lon="13.1880833">
        <ele>33.3029</ele>
        <time>2010-05-03T18:03:47Z</time>
      </trkpt>
      <trkpt lat="55.6966207" lon="13.1878844">
        <ele>34.2642</ele>
        <time>2010-05-03T18:03:52Z</time>
      </trkpt>
      <trkpt lat="55.6966874" lon="13.1876931">
        <ele>33.7834</ele>
        <time>2010-05-03T18:03:56Z</time>
      </trkpt>
      <trkpt lat="55.6967293" lon="13.1874675">
        <ele>31.3801</ele>
        <time>2010-05-03T18:04:00Z</time>
      </trkpt>
      <trkpt lat="55.6968085" lon="13.1872317">
        <ele>30.8995</ele>
        <time>2010-05-03T18:04:05Z</time>
      </trkpt>
      <trkpt lat="55.6968516" lon="13.1869458">
        <ele>28.9769</ele>
        <time>2010-05-03T18:04:10Z</time>
      </trkpt>
      <trkpt lat="55.6968583" lon="13.1868919">
        <ele>28.4962</ele>
        <time>2010-05-03T18:04:11Z</time>
      </trkpt>
      <trkpt lat="55.6969011" lon="13.1866215">
        <ele>25.6123</ele>
        <time>2010-05-03T18:04:16Z</time>
      </trkpt>
      <trkpt lat="55.6969852" lon="13.1864184">
        <ele>28.0155</ele>
        <time>2010-05-03T18:04:20Z</time>
      </trkpt>
      <trkpt lat="55.6970513" lon="13.1862277">
        <ele>28.9769</ele>
        <time>2010-05-03T18:04:24Z</time>
      </trkpt>
      <trkpt lat="55.6971594" lon="13.1860159">
        <ele>31.3801</ele>
        <time>2010-05-03T18:04:29Z</time>
      </trkpt>
      <trkpt lat="55.6972879" lon="13.1858559">
        <ele>32.3416</ele>
        <time>2010-05-03T18:04:34Z</time>
      </trkpt>
      <trkpt lat="55.6973142" lon="13.1858208">
        <ele>32.3416</ele>
        <time>2010-05-03T18:04:35Z</time>
      </trkpt>
      <trkpt lat="55.6974468" lon="13.1856699">
        <ele>34.2642</ele>
        <time>2010-05-03T18:04:40Z</time>
      </trkpt>
      <trkpt lat="55.6975442" lon="13.1854234">
        <ele>30.8995</ele>
        <time>2010-05-03T18:04:46Z</time>
      </trkpt>
      <trkpt lat="55.6976197" lon="13.1852203">
        <ele>28.9769</ele>
        <time>2010-05-03T18:04:51Z</time>
      </trkpt>
      <trkpt lat="55.6977527" lon="13.1850357">
        <ele>25.1317</ele>
        <time>2010-05-03T18:04:57Z</time>
      </trkpt>
      <trkpt lat="55.6979294" lon="13.1849163">
        <ele>28.4962</ele>
        <time>2010-05-03T18:05:02Z</time>
      </trkpt>
      <trkpt lat="55.6981252" lon="13.1847995">
        <ele>28.9769</ele>
        <time>2010-05-03T18:05:07Z</time>
      </trkpt>
      <trkpt lat="55.6982507" lon="13.1847138">
        <ele>30.8995</ele>
        <time>2010-05-03T18:05:11Z</time>
      </trkpt>
      <trkpt lat="55.6984175" lon="13.1845594">
        <ele>31.3801</ele>
        <time>2010-05-03T18:05:17Z</time>
      </trkpt>
      <trkpt lat="55.6985481" lon="13.1844209">
        <ele>30.8995</ele>
        <time>2010-05-03T18:05:22Z</time>
      </trkpt>
      <trkpt lat="55.6986865" lon="13.1843502">
        <ele>31.8607</ele>
        <time>2010-05-03T18:05:26Z</time>
      </trkpt>
      <trkpt lat="55.6988191" lon="13.1842595">
        <ele>32.8223</ele>
        <time>2010-05-03T18:05:30Z</time>
      </trkpt>
      <trkpt lat="55.6989438" lon="13.1841965">
        <ele>33.3029</ele>
        <time>2010-05-03T18:05:34Z</time>
      </trkpt>
      <trkpt lat="55.6991107" lon="13.184096">
        <ele>35.7061</ele>
        <time>2010-05-03T18:05:39Z</time>
      </trkpt>
      <trkpt lat="55.6992593" lon="13.1840713">
        <ele>37.1481</ele>
        <time>2010-05-03T18:05:44Z</time>
      </trkpt>
      <trkpt lat="55.6993798" lon="13.1840895">
        <ele>36.6675</ele>
        <time>2010-05-03T18:05:49Z</time>
      </trkpt>
      <trkpt lat="55.6995628" lon="13.1841941">
        <ele>38.5901</ele>
        <time>2010-05-03T18:05:54Z</time>
      </trkpt>
      <trkpt lat="55.6997134" lon="13.1843159">
        <ele>43.8773</ele>
        <time>2010-05-03T18:05:59Z</time>
      </trkpt>
      <trkpt lat="55.6998327" lon="13.1844594">
        <ele>43.3966</ele>
        <time>2010-05-03T18:06:03Z</time>
      </trkpt>
      <trkpt lat="55.6999659" lon="13.1845913">
        <ele>47.2418</ele>
        <time>2010-05-03T18:06:07Z</time>
      </trkpt>
      <trkpt lat="55.7001042" lon="13.1848026">
        <ele>47.2418</ele>
        <time>2010-05-03T18:06:12Z</time>
      </trkpt>
      <trkpt lat="55.7001221" lon="13.1849748">
        <ele>47.2418</ele>
        <time>2010-05-03T18:06:15Z</time>
      </trkpt>
      <trkpt lat="55.7001141" lon="13.1850208">
        <ele>47.7225</ele>
        <time>2010-05-03T18:06:16Z</time>
      </trkpt>
      <trkpt lat="55.6999388" lon="13.1851373">
        <ele>43.8773</ele>
        <time>2010-05-03T18:06:20Z</time>
      </trkpt>
      <trkpt lat="55.6998501" lon="13.1851852">
        <ele>40.5128</ele>
        <time>2010-05-03T18:06:22Z</time>
      </trkpt>
      <trkpt lat="55.6995722" lon="13.1854066">
        <ele>35.2255</ele>
        <time>2010-05-03T18:06:29Z</time>
      </trkpt>
      <trkpt lat="55.6993769" lon="13.1855659">
        <ele>33.7834</ele>
        <time>2010-05-03T18:06:34Z</time>
      </trkpt>
      <trkpt lat="55.6992366" lon="13.185677">
        <ele>31.8607</ele>
        <time>2010-05-03T18:06:38Z</time>
      </trkpt>
      <trkpt lat="55.6990337" lon="13.1858155">
        <ele>31.8607</ele>
        <time>2010-05-03T18:06:43Z</time>
      </trkpt>
      <trkpt lat="55.6988169" lon="13.1859719">
        <ele>28.9769</ele>
        <time>2010-05-03T18:06:50Z</time>
      </trkpt>
      <trkpt lat="55.6986474" lon="13.186101">
        <ele>28.0155</ele>
        <time>2010-05-03T18:06:55Z</time>
      </trkpt>
      <trkpt lat="55.6984634" lon="13.1862466">
        <ele>26.5736</ele>
        <time>2010-05-03T18:07:01Z</time>
      </trkpt>
      <trkpt lat="55.6983119" lon="13.1863955">
        <ele>26.5736</ele>
        <time>2010-05-03T18:07:06Z</time>
      </trkpt>
      <trkpt lat="55.6981161" lon="13.1865444">
        <ele>26.5736</ele>
        <time>2010-05-03T18:07:12Z</time>
      </trkpt>
      <trkpt lat="55.6979451" lon="13.1866546">
        <ele>23.209</ele>
        <time>2010-05-03T18:07:17Z</time>
      </trkpt>
      <trkpt lat="55.6977869" lon="13.1867726">
        <ele>24.1703</ele>
        <time>2010-05-03T18:07:22Z</time>
      </trkpt>
      <trkpt lat="55.6976281" lon="13.1868783">
        <ele>23.6896</ele>
        <time>2010-05-03T18:07:27Z</time>
      </trkpt>
      <trkpt lat="55.697449" lon="13.1870137">
        <ele>21.767</ele>
        <time>2010-05-03T18:07:33Z</time>
      </trkpt>
      <trkpt lat="55.6972422" lon="13.1871826">
        <ele>19.8444</ele>
        <time>2010-05-03T18:07:40Z</time>
      </trkpt>
      <trkpt lat="55.6970732" lon="13.1873561">
        <ele>31.8607</ele>
        <time>2010-05-03T18:07:46Z</time>
      </trkpt>
      <trkpt lat="55.6969127" lon="13.1875054">
        <ele>37.1481</ele>
        <time>2010-05-03T18:07:52Z</time>
      </trkpt>
      <trkpt lat="55.6968475" lon="13.1875524">
        <ele>38.1094</ele>
        <time>2010-05-03T18:07:54Z</time>
      </trkpt>
      <trkpt lat="55.6967315" lon="13.1874085">
        <ele>36.6675</ele>
        <time>2010-05-03T18:07:59Z</time>
      </trkpt>
      <trkpt lat="55.6967942" lon="13.1872481">
        <ele>33.7834</ele>
        <time>2010-05-03T18:08:03Z</time>
      </trkpt>
      <trkpt lat="55.6968398" lon="13.1871613">
        <ele>34.2642</ele>
        <time>2010-05-03T18:08:05Z</time>
      </trkpt>
      <trkpt lat="55.6968784" lon="13.1868417">
        <ele>29.9381</ele>
        <time>2010-05-03T18:08:10Z</time>
      </trkpt>
      <trkpt lat="55.6969262" lon="13.1865947">
        <ele>29.4575</ele>
        <time>2010-05-03T18:08:14Z</time>
      </trkpt>
      <trkpt lat="55.6970081" lon="13.186403">
        <ele>29.4575</ele>
        <time>2010-05-03T18:08:18Z</time>
      </trkpt>
      <trkpt lat="55.6971164" lon="13.1861879">
        <ele>30.4188</ele>
        <time>2010-05-03T18:08:23Z</time>
      </trkpt>
      <trkpt lat="55.6972045" lon="13.1860034">
        <ele>30.8995</ele>
        <time>2010-05-03T18:08:27Z</time>
      </trkpt>
      <trkpt lat="55.697344" lon="13.1857596">
        <ele>30.4188</ele>
        <time>2010-05-03T18:08:33Z</time>
      </trkpt>
      <trkpt lat="55.6975061" lon="13.1855471">
        <ele>33.3029</ele>
        <time>2010-05-03T18:08:39Z</time>
      </trkpt>
      <trkpt lat="55.6975882" lon="13.1853903">
        <ele>31.3801</ele>
        <time>2010-05-03T18:08:43Z</time>
      </trkpt>
      <trkpt lat="55.6976921" lon="13.1852631">
        <ele>33.3029</ele>
        <time>2010-05-03T18:08:47Z</time>
      </trkpt>
      <trkpt lat="55.6977809" lon="13.1851224">
        <ele>33.3029</ele>
        <time>2010-05-03T18:08:51Z</time>
      </trkpt>
      <trkpt lat="55.6978708" lon="13.1849973">
        <ele>32.3416</ele>
        <time>2010-05-03T18:08:55Z</time>
      </trkpt>
      <trkpt lat="55.6980273" lon="13.1848795">
        <ele>31.8607</ele>
        <time>2010-05-03T18:09:00Z</time>
      </trkpt>
      <trkpt lat="55.6982168" lon="13.1847613">
        <ele>30.8995</ele>
        <time>2010-05-03T18:09:06Z</time>
      </trkpt>
      <trkpt lat="55.698366" lon="13.1846459">
        <ele>30.4188</ele>
        <time>2010-05-03T18:09:11Z</time>
      </trkpt>
      <trkpt lat="55.6985052" lon="13.1845276">
        <ele>32.3416</ele>
        <time>2010-05-03T18:09:16Z</time>
      </trkpt>
      <trkpt lat="55.6986558" lon="13.1844169">
        <ele>37.6287</ele>
        <time>2010-05-03T18:09:20Z</time>
      </trkpt>
      <trkpt lat="55.6987957" lon="13.1842811">
        <ele>36.1868</ele>
        <time>2010-05-03T18:09:25Z</time>
      </trkpt>
      <trkpt lat="55.6990065" lon="13.1841849">
        <ele>39.0707</ele>
        <time>2010-05-03T18:09:31Z</time>
      </trkpt>
      <trkpt lat="55.6991277" lon="13.1841242">
        <ele>39.0707</ele>
        <time>2010-05-03T18:09:35Z</time>
      </trkpt>
      <trkpt lat="55.6992301" lon="13.1840834">
        <ele>37.6287</ele>
        <time>2010-05-03T18:09:39Z</time>
      </trkpt>
      <trkpt lat="55.6993914" lon="13.1840772">
        <ele>36.1868</ele>
        <time>2010-05-03T18:09:45Z</time>
      </trkpt>
      <trkpt lat="55.6995271" lon="13.1841548">
        <ele>35.7061</ele>
        <time>2010-05-03T18:09:50Z</time>
      </trkpt>
      <trkpt lat="55.6996824" lon="13.1843178">
        <ele>34.7449</ele>
        <time>2010-05-03T18:09:55Z</time>
      </trkpt>
      <trkpt lat="55.6998238" lon="13.1844986">
        <ele>35.2255</ele>
        <time>2010-05-03T18:10:00Z</time>
      </trkpt>
      <trkpt lat="55.6999354" lon="13.184637">
        <ele>36.6675</ele>
        <time>2010-05-03T18:10:04Z</time>
      </trkpt>
      <trkpt lat="55.7000472" lon="13.1848246">
        <ele>37.1481</ele>
        <time>2010-05-03T18:10:08Z</time>
      </trkpt>
      <trkpt lat="55.7000658" lon="13.1850167">
        <ele>37.6287</ele>
        <time>2010-05-03T18:10:11Z</time>
      </trkpt>
      <trkpt lat="55.6999487" lon="13.1851443">
        <ele>38.1094</ele>
        <time>2010-05-03T18:10:15Z</time>
      </trkpt>
      <trkpt lat="55.6996607" lon="13.1853455">
        <ele>35.2255</ele>
        <time>2010-05-03T18:10:22Z</time>
      </trkpt>
      <trkpt lat="55.6995882" lon="13.1854108">
        <ele>34.2642</ele>
        <time>2010-05-03T18:10:24Z</time>
      </trkpt>
      <trkpt lat="55.699368" lon="13.1855719">
        <ele>31.8607</ele>
        <time>2010-05-03T18:10:30Z</time>
      </trkpt>
      <trkpt lat="55.6991406" lon="13.1857503">
        <ele>31.8607</ele>
        <time>2010-05-03T18:10:36Z</time>
      </trkpt>
      <trkpt lat="55.6990339" lon="13.1858409">
        <ele>31.8607</ele>
        <time>2010-05-03T18:10:40Z</time>
      </trkpt>
      <trkpt lat="55.6988666" lon="13.1859523">
        <ele>29.4575</ele>
        <time>2010-05-03T18:10:45Z</time>
      </trkpt>
      <trkpt lat="55.6987002" lon="13.1860955">
        <ele>28.9769</ele>
        <time>2010-05-03T18:10:50Z</time>
      </trkpt>
      <trkpt lat="55.6985284" lon="13.1862263">
        <ele>30.8995</ele>
        <time>2010-05-03T18:10:55Z</time>
      </trkpt>
      <trkpt lat="55.6984124" lon="13.1863172">
        <ele>28.4962</ele>
        <time>2010-05-03T18:10:59Z</time>
      </trkpt>
      <trkpt lat="55.6982212" lon="13.1864473">
        <ele>26.0929</ele>
        <time>2010-05-03T18:11:05Z</time>
      </trkpt>
      <trkpt lat="55.6980591" lon="13.1865603">
        <ele>23.209</ele>
        <time>2010-05-03T18:11:10Z</time>
      </trkpt>
      <trkpt lat="55.6978928" lon="13.1866786">
        <ele>21.767</ele>
        <time>2010-05-03T18:11:15Z</time>
      </trkpt>
      <trkpt lat="55.6976877" lon="13.1868343">
        <ele>19.3638</ele>
        <time>2010-05-03T18:11:21Z</time>
      </trkpt>
      <trkpt lat="55.6975233" lon="13.1869547">
        <ele>18.8831</ele>
        <time>2010-05-03T18:11:26Z</time>
      </trkpt>
      <trkpt lat="55.6973318" lon="13.1871233">
        <ele>19.8444</ele>
        <time>2010-05-03T18:11:32Z</time>
      </trkpt>
      <trkpt lat="55.6971433" lon="13.1872753">
        <ele>22.2476</ele>
        <time>2010-05-03T18:11:38Z</time>
      </trkpt>
      <trkpt lat="55.6969965" lon="13.187427">
        <ele>31.3801</ele>
        <time>2010-05-03T18:11:43Z</time>
      </trkpt>
      <trkpt lat="55.6968366" lon="13.1875627">
        <ele>34.2642</ele>
        <time>2010-05-03T18:11:48Z</time>
      </trkpt>
      <trkpt lat="55.6968076" lon="13.1875659">
        <ele>34.7449</ele>
        <time>2010-05-03T18:11:49Z</time>
      </trkpt>
      <trkpt lat="55.6967542" lon="13.1873965">
        <ele>30.8995</ele>
        <time>2010-05-03T18:11:54Z</time>
      </trkpt>
      <trkpt lat="55.6968308" lon="13.1872478">
        <ele>28.9769</ele>
        <time>2010-05-03T18:11:57Z</time>
      </trkpt>
      <trkpt lat="55.6969109" lon="13.1869547">
        <ele>30.4188</ele>
        <time>2010-05-03T18:12:02Z</time>
      </trkpt>
      <trkpt lat="55.6969872" lon="13.1867505">
        <ele>31.8607</ele>
        <time>2010-05-03T18:12:06Z</time>
      </trkpt>
      <trkpt lat="55.697047" lon="13.1865324">
        <ele>32.8223</ele>
        <time>2010-05-03T18:12:10Z</time>
      </trkpt>
      <trkpt lat="55.6971608" lon="13.1862901">
        <ele>33.3029</ele>
        <time>2010-05-03T18:12:15Z</time>
      </trkpt>
      <trkpt lat="55.6972567" lon="13.185991">
        <ele>33.3029</ele>
        <time>2010-05-03T18:12:21Z</time>
      </trkpt>
      <trkpt lat="55.6973744" lon="13.1858217">
        <ele>33.7834</ele>
        <time>2010-05-03T18:12:25Z</time>
      </trkpt>
      <trkpt lat="55.6974947" lon="13.1856611">
        <ele>34.7449</ele>
        <time>2010-05-03T18:12:29Z</time>
      </trkpt>
      <trkpt lat="55.6975633" lon="13.1854478">
        <ele>32.8223</ele>
        <time>2010-05-03T18:12:33Z</time>
      </trkpt>
      <trkpt lat="55.6976655" lon="13.1852942">
        <ele>30.4188</ele>
        <time>2010-05-03T18:12:37Z</time>
      </trkpt>
      <trkpt lat="55.6978187" lon="13.1851032">
        <ele>31.3801</ele>
        <time>2010-05-03T18:12:43Z</time>
      </trkpt>
      <trkpt lat="55.6978996" lon="13.1849466">
        <ele>27.0543</ele>
        <time>2010-05-03T18:12:47Z</time>
      </trkpt>
      <trkpt lat="55.6980849" lon="13.1848265">
        <ele>28.0155</ele>
        <time>2010-05-03T18:12:52Z</time>
      </trkpt>
      <trkpt lat="55.6982518" lon="13.1847007">
        <ele>30.4188</ele>
        <time>2010-05-03T18:12:57Z</time>
      </trkpt>
      <trkpt lat="55.6983935" lon="13.1845806">
        <ele>31.3801</ele>
        <time>2010-05-03T18:13:02Z</time>
      </trkpt>
      <trkpt lat="55.6985447" lon="13.1844205">
        <ele>29.4575</ele>
        <time>2010-05-03T18:13:08Z</time>
      </trkpt>
      <trkpt lat="55.698746" lon="13.184309">
        <ele>31.3801</ele>
        <time>2010-05-03T18:13:13Z</time>
      </trkpt>
      <trkpt lat="55.6989371" lon="13.1842003">
        <ele>28.9769</ele>
        <time>2010-05-03T18:13:18Z</time>
      </trkpt>
      <trkpt lat="55.699004" lon="13.1841578">
        <ele>28.4962</ele>
        <time>2010-05-03T18:13:20Z</time>
      </trkpt>
      <trkpt lat="55.6991667" lon="13.1840738">
        <ele>33.3029</ele>
        <time>2010-05-03T18:13:24Z</time>
      </trkpt>
      <trkpt lat="55.699349" lon="13.1840939">
        <ele>31.8607</ele>
        <time>2010-05-03T18:13:30Z</time>
      </trkpt>
      <trkpt lat="55.6995276" lon="13.1841851">
        <ele>34.2642</ele>
        <time>2010-05-03T18:13:35Z</time>
      </trkpt>
      <trkpt lat="55.6996431" lon="13.184255">
        <ele>35.2255</ele>
        <time>2010-05-03T18:13:39Z</time>
      </trkpt>
      <trkpt lat="55.6997983" lon="13.184424">
        <ele>37.6287</ele>
        <time>2010-05-03T18:13:44Z</time>
      </trkpt>
      <trkpt lat="55.6999571" lon="13.1845987">
        <ele>40.0321</ele>
        <time>2010-05-03T18:13:49Z</time>
      </trkpt>
      <trkpt lat="55.7000913" lon="13.1848015">
        <ele>42.4354</ele>
        <time>2010-05-03T18:13:53Z</time>
      </trkpt>
      <trkpt lat="55.7001342" lon="13.1850224">
        <ele>44.358</ele>
        <time>2010-05-03T18:13:56Z</time>
      </trkpt>
      <trkpt lat="55.7000043" lon="13.1851861">
        <ele>41.9547</ele>
        <time>2010-05-03T18:14:00Z</time>
      </trkpt>
      <trkpt lat="55.6998819" lon="13.1852632">
        <ele>38.5901</ele>
        <time>2010-05-03T18:14:03Z</time>
      </trkpt>
      <trkpt lat="55.6997172" lon="13.1853586">
        <ele>35.2255</ele>
        <time>2010-05-03T18:14:07Z</time>
      </trkpt>
      <trkpt lat="55.699563" lon="13.1854513">
        <ele>32.3416</ele>
        <time>2010-05-03T18:14:11Z</time>
      </trkpt>
      <trkpt lat="55.6993172" lon="13.1856155">
        <ele>31.3801</ele>
        <time>2010-05-03T18:14:17Z</time>
      </trkpt>
      <trkpt lat="55.6991566" lon="13.1857298">
        <ele>30.8995</ele>
        <time>2010-05-03T18:14:21Z</time>
      </trkpt>
      <trkpt lat="55.6989868" lon="13.1858751">
        <ele>29.9381</ele>
        <time>2010-05-03T18:14:26Z</time>
      </trkpt>
      <trkpt lat="55.698847" lon="13.1859814">
        <ele>28.9769</ele>
        <time>2010-05-03T18:14:30Z</time>
      </trkpt>
      <trkpt lat="55.698809" lon="13.1860088">
        <ele>28.4962</ele>
        <time>2010-05-03T18:14:31Z</time>
      </trkpt>
      <trkpt lat="55.698605" lon="13.1861688">
        <ele>28.9769</ele>
        <time>2010-05-03T18:14:37Z</time>
      </trkpt>
      <trkpt lat="55.6984334" lon="13.1863029">
        <ele>27.5349</ele>
        <time>2010-05-03T18:14:42Z</time>
      </trkpt>
      <trkpt lat="55.6982585" lon="13.1864381">
        <ele>26.0929</ele>
        <time>2010-05-03T18:14:48Z</time>
      </trkpt>
      <trkpt lat="55.6980564" lon="13.186578">
        <ele>26.5736</ele>
        <time>2010-05-03T18:14:54Z</time>
      </trkpt>
      <trkpt lat="55.6978664" lon="13.186725">
        <ele>26.5736</ele>
        <time>2010-05-03T18:15:00Z</time>
      </trkpt>
      <trkpt lat="55.6976696" lon="13.1868796">
        <ele>28.0155</ele>
        <time>2010-05-03T18:15:06Z</time>
      </trkpt>
      <trkpt lat="55.6974556" lon="13.1870896">
        <ele>28.4962</ele>
        <time>2010-05-03T18:15:13Z</time>
      </trkpt>
      <trkpt lat="55.6972935" lon="13.1872194">
        <ele>26.5736</ele>
        <time>2010-05-03T18:15:18Z</time>
      </trkpt>
      <trkpt lat="55.6971157" lon="13.187394">
        <ele>36.6675</ele>
        <time>2010-05-03T18:15:24Z</time>
      </trkpt>
      <trkpt lat="55.6969608" lon="13.1875266">
        <ele>35.2255</ele>
        <time>2010-05-03T18:15:29Z</time>
      </trkpt>
      <trkpt lat="55.6967915" lon="13.1876798">
        <ele>32.3416</ele>
        <time>2010-05-03T18:15:34Z</time>
      </trkpt>
      <trkpt lat="55.6966608" lon="13.1877923">
        <ele>32.8223</ele>
        <time>2010-05-03T18:15:38Z</time>
      </trkpt>
      <trkpt lat="55.6965631" lon="13.188016">
        <ele>33.3029</ele>
        <time>2010-05-03T18:15:43Z</time>
      </trkpt>
      <trkpt lat="55.6964491" lon="13.188274">
        <ele>29.9381</ele>
        <time>2010-05-03T18:15:48Z</time>
      </trkpt>
      <trkpt lat="55.6963879" lon="13.188488">
        <ele>29.9381</ele>
        <time>2010-05-03T18:15:52Z</time>
      </trkpt>
      <trkpt lat="55.6962781" lon="13.1889871">
        <ele>31.3801</ele>
        <time>2010-05-03T18:16:00Z</time>
      </trkpt>
      <trkpt lat="55.6962336" lon="13.1893852">
        <ele>31.3801</ele>
        <time>2010-05-03T18:16:05Z</time>
      </trkpt>
      <trkpt lat="55.696217" lon="13.1895253">
        <ele>31.3801</ele>
        <time>2010-05-03T18:16:07Z</time>
      </trkpt>
      <trkpt lat="55.6962037" lon="13.1896659">
        <ele>31.3801</ele>
        <time>2010-05-03T18:16:09Z</time>
      </trkpt>
      <trkpt lat="55.6961854" lon="13.190118">
        <ele>31.8607</ele>
        <time>2010-05-03T18:16:16Z</time>
      </trkpt>
      <trkpt lat="55.6961606" lon="13.1904843">
        <ele>31.3801</ele>
        <time>2010-05-03T18:16:22Z</time>
      </trkpt>
      <trkpt lat="55.6961404" lon="13.1907985">
        <ele>31.3801</ele>
        <time>2010-05-03T18:16:27Z</time>
      </trkpt>
      <trkpt lat="55.6961107" lon="13.1911526">
        <ele>31.8607</ele>
        <time>2010-05-03T18:16:33Z</time>
      </trkpt>
      <trkpt lat="55.696148" lon="13.1913617">
        <ele>32.3416</ele>
        <time>2010-05-03T18:16:37Z</time>
      </trkpt>
      <trkpt lat="55.6962158" lon="13.191573">
        <ele>31.8607</ele>
        <time>2010-05-03T18:16:41Z</time>
      </trkpt>
      <trkpt lat="55.6963318" lon="13.1918602">
        <ele>32.3416</ele>
        <time>2010-05-03T18:16:47Z</time>
      </trkpt>
      <trkpt lat="55.696466" lon="13.1921167">
        <ele>34.7449</ele>
        <time>2010-05-03T18:16:52Z</time>
      </trkpt>
      <trkpt lat="55.69646" lon="13.1923144">
        <ele>32.3416</ele>
        <time>2010-05-03T18:16:55Z</time>
      </trkpt>
      <trkpt lat="55.6963506" lon="13.1926098">
        <ele>29.9381</ele>
        <time>2010-05-03T18:17:00Z</time>
      </trkpt>
      <trkpt lat="55.6962729" lon="13.1928918">
        <ele>29.4575</ele>
        <time>2010-05-03T18:17:05Z</time>
      </trkpt>
      <trkpt lat="55.6962859" lon="13.1930548">
        <ele>29.9381</ele>
        <time>2010-05-03T18:17:08Z</time>
      </trkpt>
      <trkpt lat="55.6962552" lon="13.1933109">
        <ele>26.0929</ele>
        <time>2010-05-03T18:17:12Z</time>
      </trkpt>
      <trkpt lat="55.6962471" lon="13.1935799">
        <ele>23.209</ele>
        <time>2010-05-03T18:17:16Z</time>
      </trkpt>
      <trkpt lat="55.6962759" lon="13.1939398">
        <ele>21.767</ele>
        <time>2010-05-03T18:17:21Z</time>
      </trkpt>
      <trkpt lat="55.6962785" lon="13.194014">
        <ele>20.325</ele>
        <time>2010-05-03T18:17:22Z</time>
      </trkpt>
      <trkpt lat="55.696256" lon="13.1942987">
        <ele>18.8831</ele>
        <time>2010-05-03T18:17:26Z</time>
      </trkpt>
      <trkpt lat="55.6962588" lon="13.194463">
        <ele>20.325</ele>
        <time>2010-05-03T18:17:28Z</time>
      </trkpt>
      <trkpt lat="55.6962581" lon="13.1947463">
        <ele>19.3638</ele>
        <time>2010-05-03T18:17:32Z</time>
      </trkpt>
      <trkpt lat="55.696272" lon="13.1948983">
        <ele>20.325</ele>
        <time>2010-05-03T18:17:34Z</time>
      </trkpt>
      <trkpt lat="55.6962854" lon="13.1952579">
        <ele>20.8057</ele>
        <time>2010-05-03T18:17:39Z</time>
      </trkpt>
    </trkseg>
  </trk>
</gpx>